createdAt,value
2019-04-21T00:01:44.151Z,3.57
2019-04-21T00:04:24.582Z,3.85
2019-04-21T00:07:06.136Z,4.12
2019-04-21T00:09:32.592Z,4.08
2019-04-21T00:12:02.841Z,4.08
2019-04-21T00:14:22.703Z,4.65
2019-04-21T00:16:51.064Z,4.55
2019-04-21T00:19:21.765Z,4.60
2019-04-21T00:21:53.111Z,4.42
2019-04-21T00:24:30.502Z,5.03
2019-04-21T00:27:06.892Z,5.60
2019-04-21T00:29:37.991Z,5.90
2019-04-21T00:32:03.025Z,6.65
2019-04-21T00:34:18.241Z,8.20
2019-04-21T00:37:00.141Z,9.50
2019-04-21T00:39:48.881Z,9.65
2019-04-21T00:42:08.016Z,10.10
2019-04-21T00:44:29.447Z,9.75
2019-04-21T00:47:03.670Z,9.00
2019-04-21T00:49:35.729Z,7.92
2019-04-21T00:55:29.410Z,6.40
2019-04-21T01:00:22.285Z,5.05
2019-04-21T01:05:21.134Z,4.53
2019-04-21T01:07:48.254Z,4.83
2019-04-21T01:10:14.452Z,3.90
2019-04-21T01:12:52.036Z,3.87
2019-04-21T01:15:24.812Z,4.37
2019-04-21T01:17:51.863Z,4.70
2019-04-21T01:20:13.026Z,4.60
2019-04-21T01:22:29.818Z,4.40
2019-04-21T01:25:08.937Z,4.33
2019-04-21T01:27:52.107Z,4.22
2019-04-21T01:30:16.309Z,4.10
2019-04-21T01:32:48.184Z,4.22
2019-04-21T01:35:20.872Z,4.20
2019-04-21T01:37:57.770Z,4.25
2019-04-21T01:40:22.906Z,3.60
2019-04-21T01:42:50.987Z,3.10
2019-04-21T01:45:20.057Z,3.10
2019-04-21T01:47:46.331Z,3.05
2019-04-21T01:50:19.862Z,3.45
2019-04-21T01:53:13.770Z,3.05
2019-04-21T01:55:25.094Z,2.92
2019-04-21T01:57:55.300Z,3.90
2019-04-21T02:00:28.158Z,4.75
2019-04-21T02:03:09.660Z,4.78
2019-04-21T02:05:38.709Z,5.17
2019-04-21T02:08:00.833Z,4.72
2019-04-21T02:10:41.512Z,3.70
2019-04-21T02:13:03.232Z,3.30
2019-04-21T02:15:36.509Z,3.30
2019-04-21T02:18:10.459Z,2.95
2019-04-21T02:20:27.679Z,3.15
2019-04-21T02:23:28.176Z,2.77
2019-04-21T02:25:55.530Z,2.52
2019-04-21T02:28:03.754Z,2.90
2019-04-21T02:30:47.154Z,3.05
2019-04-21T02:33:21.752Z,3.52
2019-04-21T02:35:52.620Z,3.25
2019-04-21T02:38:23.764Z,3.65
2019-04-21T02:40:46.711Z,3.80
2019-04-21T02:43:19.139Z,3.70
2019-04-21T02:50:47.201Z,4.17
2019-04-21T02:53:22.670Z,4.05
2019-04-21T02:55:48.119Z,3.47
2019-04-21T02:58:36.313Z,3.70
2019-04-21T03:01:29.164Z,4.03
2019-04-21T03:03:52.940Z,4.37
2019-04-21T03:06:27.117Z,4.28
2019-04-21T03:08:59.080Z,4.30
2019-04-21T03:11:17.127Z,4.35
2019-04-21T03:13:57.406Z,4.25
2019-04-21T03:18:56.601Z,4.72
2019-04-21T03:21:22.092Z,4.22
2019-04-21T03:23:57.375Z,5.05
2019-04-21T03:28:52.291Z,4.97
2019-04-21T03:32:04.025Z,4.60
2019-04-21T03:34:28.934Z,5.62
2019-04-21T03:41:32.184Z,5.17
2019-04-21T03:46:37.343Z,5.42
2019-04-21T03:53:53.754Z,5.85
2019-04-21T03:56:55.209Z,5.90
2019-04-21T03:58:59.822Z,5.90
2019-04-21T04:01:41.285Z,6.33
2019-04-21T04:04:22.727Z,5.67
2019-04-21T04:09:41.708Z,5.33
2019-04-21T04:14:31.045Z,5.70
2019-04-21T04:17:04.851Z,5.90
2019-04-21T04:19:36.209Z,5.83
2019-04-21T04:22:09.249Z,5.80
2019-04-21T04:29:35.241Z,5.47
2019-04-21T04:31:57.151Z,5.50
2019-04-21T04:34:47.687Z,5.83
2019-04-21T04:37:05.910Z,4.62
2019-04-21T04:39:45.607Z,4.95
2019-04-21T04:44:59.735Z,5.15
2019-04-21T04:49:49.710Z,5.90
2019-04-21T04:57:14.160Z,5.33
2019-04-21T04:59:43.115Z,5.28
2019-04-21T05:02:20.496Z,6.05
2019-04-21T05:05:01.643Z,5.28
2019-04-21T05:07:13.906Z,5.67
2019-04-21T05:12:11.761Z,5.37
2019-04-21T05:17:59.128Z,5.20
2019-04-21T05:20:03.610Z,5.40
2019-04-21T05:22:33.447Z,5.58
2019-04-21T05:24:37.699Z,5.03
2019-04-21T05:27:08.635Z,6.12
2019-04-21T05:29:53.540Z,5.50
2019-04-21T05:32:17.213Z,5.97
2019-04-21T05:34:54.252Z,5.28
2019-04-21T05:37:24.466Z,5.55
2019-04-21T05:39:52.578Z,5.37
2019-04-21T05:42:27.292Z,5.22
2019-04-21T05:45:16.062Z,5.83
2019-04-21T05:47:39.699Z,6.30
2019-04-21T05:50:06.480Z,5.30
2019-04-21T05:52:35.366Z,5.28
2019-04-21T05:55:18.141Z,5.50
2019-04-21T05:57:38.154Z,5.42
2019-04-21T06:00:19.703Z,5.85
2019-04-21T06:02:49.567Z,5.78
2019-04-21T06:05:43.565Z,5.37
2019-04-21T06:07:46.186Z,5.87
2019-04-21T06:10:13.804Z,5.25
2019-04-21T06:12:57.896Z,5.70
2019-04-21T06:15:21.381Z,5.87
2019-04-21T06:17:55.051Z,5.60
2019-04-21T06:20:20.634Z,5.90
2019-04-21T06:22:50.573Z,5.70
2019-04-21T06:25:41.539Z,5.70
2019-04-21T06:27:50.991Z,5.62
2019-04-21T06:30:17.714Z,5.60
2019-04-21T06:32:50.518Z,7.45
2019-04-21T06:35:45.935Z,5.25
2019-04-21T06:38:04.427Z,5.85
2019-04-21T06:40:40.023Z,5.75
2019-04-21T06:43:15.646Z,6.15
2019-04-21T06:45:37.836Z,5.92
2019-04-21T06:48:04.723Z,6.33
2019-04-21T06:50:41.193Z,5.10
2019-04-21T06:53:06.023Z,5.62
2019-04-21T06:55:34.036Z,5.70
2019-04-21T06:58:06.190Z,5.55
2019-04-21T07:00:34.474Z,5.72
2019-04-21T07:03:15.586Z,6.10
2019-04-21T07:05:41.146Z,5.30
2019-04-21T07:08:27.483Z,5.53
2019-04-21T07:10:35.090Z,5.72
2019-04-21T07:13:03.730Z,5.90
2019-04-21T07:16:02.850Z,5.25
2019-04-21T07:18:12.498Z,5.47
2019-04-21T07:20:46.238Z,5.72
2019-04-21T07:23:16.088Z,6.00
2019-04-21T07:25:48.308Z,5.60
2019-04-21T07:28:15.575Z,5.70
2019-04-21T07:30:48.730Z,6.15
2019-04-21T07:33:37.568Z,5.75
2019-04-21T07:35:43.286Z,6.05
2019-04-21T07:38:12.051Z,6.67
2019-04-21T07:40:38.900Z,6.45
2019-04-21T07:43:05.730Z,5.92
2019-04-21T07:45:35.255Z,6.60
2019-04-21T07:48:26.327Z,6.03
2019-04-21T07:51:17.272Z,5.92
2019-04-21T07:53:49.422Z,6.28
2019-04-21T07:56:06.261Z,5.95
2019-04-21T07:58:55.813Z,5.92
2019-04-21T08:01:23.014Z,6.42
2019-04-21T08:03:46.116Z,6.00
2019-04-21T08:06:22.735Z,6.08
2019-04-21T08:08:50.777Z,6.10
2019-04-21T08:11:15.242Z,5.83
2019-04-21T08:13:49.810Z,5.35
2019-04-21T08:16:18.503Z,5.03
2019-04-21T08:18:45.526Z,6.58
2019-04-21T08:21:19.633Z,5.05
2019-04-21T08:23:47.904Z,5.25
2019-04-21T08:26:17.542Z,5.00
2019-04-21T08:28:55.418Z,5.22
2019-04-21T08:31:23.986Z,5.17
2019-04-21T08:33:56.079Z,4.65
2019-04-21T08:36:25.466Z,4.78
2019-04-21T08:38:51.506Z,4.35
2019-04-21T08:41:18.368Z,4.78
2019-04-21T08:44:04.964Z,5.17
2019-04-21T08:46:18.953Z,4.60
2019-04-21T08:48:52.586Z,4.83
2019-04-21T08:51:27.915Z,4.45
2019-04-21T08:53:56.828Z,4.47
2019-04-21T08:56:21.405Z,4.08
2019-04-21T08:59:07.043Z,4.12
2019-04-21T09:04:11.136Z,4.50
2019-04-21T09:06:57.229Z,3.77
2019-04-21T09:09:11.920Z,4.33
2019-04-21T09:11:34.887Z,4.67
2019-04-21T09:14:07.080Z,4.47
2019-04-21T09:16:37.007Z,4.85
2019-04-21T09:19:04.479Z,4.00
2019-04-21T09:21:40.796Z,4.08
2019-04-21T09:24:13.290Z,4.25
2019-04-21T09:26:35.544Z,4.28
2019-04-21T09:29:00.448Z,3.60
2019-04-21T09:31:28.209Z,12.05
2019-04-21T09:33:53.998Z,3.72
2019-04-21T09:36:23.559Z,4.03
2019-04-21T09:39:00.078Z,4.00
2019-04-21T09:41:24.200Z,4.03
2019-04-21T09:43:53.983Z,3.90
2019-04-21T09:46:21.494Z,4.22
2019-04-21T09:48:58.646Z,4.20
2019-04-21T09:51:20.237Z,4.40
2019-04-21T09:53:58.442Z,4.43
2019-04-21T09:56:31.545Z,4.50
2019-04-21T09:58:53.226Z,4.53
2019-04-21T10:01:26.862Z,4.25
2019-04-21T10:03:53.692Z,4.62
2019-04-21T10:06:20.737Z,3.87
2019-04-21T10:08:56.605Z,4.35
2019-04-21T10:11:20.899Z,4.05
2019-04-21T10:13:50.590Z,4.10
2019-04-21T10:16:29.903Z,3.80
2019-04-21T10:19:02.452Z,4.17
2019-04-21T10:21:31.916Z,4.08
2019-04-21T10:24:00.284Z,4.53
2019-04-21T10:26:28.820Z,4.67
2019-04-21T10:29:04.338Z,4.72
2019-04-21T10:31:27.422Z,4.12
2019-04-21T10:33:55.888Z,4.70
2019-04-21T10:36:24.940Z,4.22
2019-04-21T10:38:55.189Z,4.22
2019-04-21T10:41:23.703Z,4.80
2019-04-21T10:43:53.350Z,3.72
2019-04-21T10:46:22.478Z,4.72
2019-04-21T10:48:50.844Z,5.20
2019-04-21T10:51:19.378Z,5.72
2019-04-21T10:53:52.393Z,5.25
2019-04-21T10:56:28.595Z,5.33
2019-04-21T10:58:50.074Z,5.60
2019-04-21T11:01:21.026Z,5.42
2019-04-21T11:04:03.087Z,6.20
2019-04-21T11:06:32.612Z,6.12
2019-04-21T11:11:31.779Z,6.10
2019-04-21T11:14:00.471Z,6.08
2019-04-21T11:16:29.171Z,6.30
2019-04-21T11:18:57.976Z,6.60
2019-04-21T11:21:27.129Z,11.05
2019-04-21T11:23:56.515Z,6.45
2019-04-21T11:26:25.166Z,6.80
2019-04-21T11:28:54.921Z,7.12
2019-04-21T11:31:24.933Z,6.53
2019-04-21T11:33:53.534Z,6.12
2019-04-21T11:36:22.004Z,7.17
2019-04-21T11:39:07.258Z,6.70
2019-04-21T11:41:23.708Z,6.75
2019-04-21T11:43:53.085Z,6.45
2019-04-21T11:46:22.481Z,6.05
2019-04-21T11:51:19.295Z,6.25
2019-04-21T11:53:48.803Z,8.08
2019-04-21T11:58:45.837Z,6.85
2019-04-21T12:01:15.753Z,6.75
2019-04-21T12:03:45.440Z,6.05
2019-04-21T12:06:15.330Z,6.30
2019-04-21T12:08:47.620Z,5.80
2019-04-21T12:11:15.725Z,6.65
2019-04-21T12:13:45.737Z,6.10
2019-04-21T12:16:14.958Z,6.00
2019-04-21T12:18:45.010Z,6.12
2019-04-21T12:21:13.677Z,6.10
2019-04-21T12:23:42.717Z,6.42
2019-04-21T12:26:11.461Z,6.05
2019-04-21T12:28:40.005Z,5.90
2019-04-21T12:31:10.106Z,6.58
2019-04-21T12:33:40.341Z,5.28
2019-04-21T12:36:09.470Z,5.55
2019-04-21T12:38:43.693Z,4.47
2019-04-21T12:41:08.709Z,7.15
2019-04-21T12:43:37.217Z,6.08
2019-04-21T12:46:05.766Z,5.73
2019-04-21T12:48:35.728Z,5.57
2019-04-21T12:51:05.950Z,5.08
2019-04-21T12:53:35.899Z,5.60
2019-04-21T12:56:05.465Z,4.95
2019-04-21T12:58:35.193Z,4.90
2019-04-21T13:01:05.037Z,5.03
2019-04-21T13:03:34.112Z,4.72
2019-04-21T13:06:03.488Z,5.35
2019-04-21T13:13:30.150Z,5.80
2019-04-21T13:15:58.900Z,5.03
2019-04-21T13:18:27.365Z,4.60
2019-04-21T13:20:56.105Z,4.70
2019-04-21T13:23:24.958Z,5.05
2019-04-21T13:25:54.157Z,4.30
2019-04-21T13:30:51.559Z,4.58
2019-04-21T13:33:20.982Z,4.50
2019-04-21T13:35:50.901Z,4.33
2019-04-21T13:38:29.063Z,4.17
2019-04-21T13:41:20.389Z,4.95
2019-04-21T13:43:34.942Z,4.15
2019-04-21T13:46:03.912Z,4.37
2019-04-21T13:48:32.740Z,4.50
2019-04-21T13:51:01.545Z,4.75
2019-04-21T13:53:31.269Z,4.42
2019-04-21T13:56:00.464Z,4.40
2019-04-21T13:58:30.362Z,4.90
2019-04-21T14:00:59.978Z,4.40
2019-04-21T14:03:29.241Z,4.22
2019-04-21T14:05:58.276Z,4.30
2019-04-21T14:08:27.374Z,4.42
2019-04-21T14:10:55.940Z,4.60
2019-04-21T14:13:24.718Z,4.13
2019-04-21T14:15:53.853Z,4.58
2019-04-21T14:18:22.697Z,4.62
2019-04-21T14:20:51.363Z,4.53
2019-04-21T14:23:29.931Z,4.27
2019-04-21T14:25:50.151Z,4.42
2019-04-21T14:28:19.816Z,3.92
2019-04-21T14:30:48.575Z,4.10
2019-04-21T14:33:18.293Z,3.93
2019-04-21T14:35:47.135Z,3.70
2019-04-21T14:38:16.514Z,3.95
2019-04-21T14:43:14.156Z,3.60
2019-04-21T14:45:45.153Z,3.98
2019-04-21T14:48:30.190Z,4.20
2019-04-21T14:51:06.663Z,3.87
2019-04-21T14:53:56.184Z,4.05
2019-04-21T14:56:25.153Z,3.75
2019-04-21T14:58:56.858Z,7.78
2019-04-21T15:01:23.993Z,3.98
2019-04-21T15:03:52.440Z,3.77
2019-04-21T15:06:21.259Z,3.58
2019-04-21T15:08:51.088Z,4.40
2019-04-21T15:11:20.018Z,4.05
2019-04-21T15:13:50.025Z,4.00
2019-04-21T15:16:18.870Z,3.85
2019-04-21T15:18:48.555Z,4.50
2019-04-21T15:21:17.496Z,3.83
2019-04-21T15:23:46.608Z,4.30
2019-04-21T15:26:20.031Z,4.10
2019-04-21T15:28:52.911Z,4.15
2019-04-21T15:31:28.752Z,4.12
2019-04-21T15:33:51.274Z,4.70
2019-04-21T15:36:20.994Z,4.12
2019-04-21T15:38:49.712Z,3.87
2019-04-21T15:41:18.605Z,4.65
2019-04-21T15:43:47.141Z,5.37
2019-04-21T15:46:15.622Z,6.17
2019-04-21T15:48:44.743Z,6.72
2019-04-21T15:51:13.595Z,6.60
2019-04-21T15:53:43.923Z,6.40
2019-04-21T15:56:31.062Z,5.53
2019-04-21T15:59:01.146Z,5.12
2019-04-21T16:01:50.561Z,5.05
2019-04-21T16:04:19.226Z,5.78
2019-04-21T16:06:47.832Z,6.03
2019-04-21T16:09:20.967Z,5.20
2019-04-21T16:11:46.374Z,5.40
2019-04-21T16:14:14.863Z,6.75
2019-04-21T16:16:45.246Z,7.70
2019-04-21T16:19:16.469Z,6.55
2019-04-21T16:21:46.523Z,5.95
2019-04-21T16:24:16.195Z,5.70
2019-04-21T16:26:44.840Z,7.20
2019-04-21T16:29:13.464Z,6.10
2019-04-21T16:31:42.675Z,5.40
2019-04-21T16:34:11.209Z,5.72
2019-04-21T16:36:39.709Z,6.10
2019-04-21T16:39:09.418Z,5.62
2019-04-21T16:41:38.379Z,8.05
2019-04-21T16:44:07.262Z,5.85
2019-04-21T16:46:35.829Z,5.70
2019-04-21T16:49:04.385Z,5.53
2019-04-21T16:51:33.902Z,4.73
2019-04-21T16:54:04.132Z,6.20
2019-04-21T16:56:34.323Z,5.90
2019-04-21T16:59:10.632Z,5.67
2019-04-21T17:01:40.557Z,6.40
2019-04-21T17:04:10.653Z,7.55
2019-04-21T17:06:40.775Z,9.50
2019-04-21T17:09:10.556Z,8.70
2019-04-21T17:11:41.591Z,9.23
2019-04-21T17:14:27.226Z,9.98
2019-04-21T17:17:03.050Z,9.23
2019-04-21T17:19:19.061Z,8.65
2019-04-21T17:21:41.639Z,10.38
2019-04-21T17:24:10.610Z,9.03
2019-04-21T17:26:41.136Z,10.28
2019-04-21T17:29:10.359Z,10.10
2019-04-21T17:31:39.301Z,7.45
2019-04-21T17:34:13.883Z,36.65
2019-04-21T17:36:39.295Z,9.25
2019-04-21T17:39:08.944Z,11.30
2019-04-21T17:46:44.058Z,7.55
2019-04-21T17:49:05.348Z,7.12
2019-04-21T17:51:53.714Z,16.80
2019-04-21T17:54:28.207Z,9.28
2019-04-21T17:57:15.355Z,8.33
2019-04-21T17:59:51.192Z,10.72
2019-04-21T18:02:10.994Z,6.95
2019-04-21T18:04:41.550Z,7.17
2019-04-21T18:07:26.551Z,9.18
2019-04-21T18:09:56.452Z,6.05
2019-04-21T18:12:24.111Z,6.67
2019-04-21T18:14:38.020Z,6.62
2019-04-21T18:17:08.597Z,7.87
2019-04-21T18:19:41.770Z,6.67
2019-04-21T18:22:34.791Z,7.67
2019-04-21T18:25:04.626Z,7.25
2019-04-21T18:27:30.560Z,8.53
2019-04-21T18:30:04.263Z,7.67
2019-04-21T18:32:38.466Z,7.00
2019-04-21T18:35:11.508Z,7.67
2019-04-21T18:37:56.812Z,7.92
2019-04-21T18:40:27.485Z,7.95
2019-04-21T18:43:23.512Z,8.33
2019-04-21T18:46:11.569Z,8.55
2019-04-21T18:48:18.389Z,8.83
2019-04-21T18:50:46.006Z,7.80
2019-04-21T18:53:30.328Z,8.93
2019-04-21T18:55:49.141Z,8.03
2019-04-21T18:58:15.606Z,7.62
2019-04-21T19:00:45.840Z,7.35
2019-04-21T19:03:19.893Z,7.67
2019-04-21T19:05:50.447Z,8.35
2019-04-21T19:08:39.249Z,9.20
2019-04-21T19:11:08.518Z,9.23
2019-04-21T19:13:57.143Z,7.67
2019-04-21T19:16:28.040Z,7.08
2019-04-21T19:18:47.066Z,8.40
2019-04-21T19:21:11.444Z,8.08
2019-04-21T19:24:04.265Z,8.83
2019-04-21T19:26:26.272Z,8.33
2019-04-21T19:28:50.216Z,8.48
2019-04-21T19:31:15.929Z,8.25
2019-04-21T19:33:36.556Z,9.88
2019-04-21T19:35:57.286Z,8.48
2019-04-21T19:38:35.008Z,8.63
2019-04-21T19:41:10.372Z,8.30
2019-04-21T19:43:47.110Z,7.70
2019-04-21T19:46:14.393Z,8.05
2019-04-21T19:48:54.108Z,7.87
2019-04-21T19:51:12.539Z,7.60
2019-04-21T19:53:42.587Z,7.83
2019-04-21T19:55:58.311Z,7.67
2019-04-21T20:00:59.649Z,9.83
2019-04-21T20:03:28.476Z,10.72
2019-04-21T20:06:08.164Z,10.40
2019-04-21T20:08:43.248Z,11.25
2019-04-21T20:11:14.600Z,10.98
2019-04-21T20:14:03.353Z,11.65
2019-04-21T20:16:21.544Z,11.97
2019-04-21T20:18:37.878Z,13.98
2019-04-21T20:20:58.884Z,12.65
2019-04-21T20:23:31.779Z,12.43
2019-04-21T20:26:02.277Z,12.13
2019-04-21T20:28:44.335Z,12.50
2019-04-21T20:31:19.184Z,13.30
2019-04-21T20:36:21.090Z,13.30
2019-04-21T20:38:40.392Z,12.43
2019-04-21T20:41:15.322Z,11.48
2019-04-21T20:43:47.146Z,12.28
2019-04-21T20:46:11.845Z,11.83
2019-04-21T20:48:42.109Z,8.93
2019-04-21T20:51:17.995Z,9.10
2019-04-21T20:53:44.905Z,8.60
2019-04-21T20:56:11.392Z,8.83
2019-04-21T20:58:46.328Z,7.92
2019-04-21T21:03:58.040Z,9.15
2019-04-21T21:06:14.489Z,9.00
2019-04-21T21:08:47.697Z,9.48
2019-04-21T21:11:21.297Z,8.45
2019-04-21T21:13:50.844Z,9.23
2019-04-21T21:16:19.971Z,8.63
2019-04-21T21:21:16.114Z,7.67
2019-04-21T21:23:49.218Z,7.22
2019-04-21T21:26:21.782Z,6.83
2019-04-21T21:28:45.898Z,6.42
2019-04-21T21:31:20.931Z,6.65
2019-04-21T21:33:57.461Z,6.60
2019-04-21T21:36:20.991Z,5.90
2019-04-21T21:38:54.717Z,6.95
2019-04-21T21:41:15.325Z,6.78
2019-04-21T21:43:34.427Z,5.87
2019-04-21T21:46:15.233Z,6.58
2019-04-21T21:48:44.986Z,6.67
2019-04-21T21:51:10.367Z,6.30
2019-04-21T21:53:35.919Z,7.42
2019-04-21T21:56:04.655Z,6.85
2019-04-21T22:01:04.921Z,6.30
2019-04-21T22:03:38.921Z,6.33
2019-04-21T22:06:08.112Z,6.87
2019-04-21T22:08:34.251Z,6.40
2019-04-21T22:11:03.294Z,6.47
2019-04-21T22:13:42.850Z,5.33
2019-04-21T22:16:06.991Z,6.40
2019-04-21T22:18:58.293Z,6.05
2019-04-21T22:21:17.310Z,5.90
2019-04-21T22:23:43.927Z,5.40
2019-04-21T22:26:03.128Z,5.58
2019-04-21T22:28:31.654Z,5.65
2019-04-21T22:31:01.109Z,5.53
2019-04-21T22:33:32.206Z,5.85
2019-04-21T22:36:09.928Z,6.25
2019-04-21T22:38:43.769Z,5.28
2019-04-21T22:41:10.614Z,5.28
2019-04-21T22:43:36.716Z,5.78
2019-04-21T22:46:01.188Z,5.90
2019-04-21T22:48:30.700Z,5.33
2019-04-21T22:51:00.599Z,5.20
2019-04-21T22:53:36.252Z,5.25
2019-04-21T22:56:10.494Z,5.25
2019-04-21T22:58:34.039Z,5.12
2019-04-21T23:01:01.890Z,5.28
2019-04-21T23:03:30.774Z,5.05
2019-04-21T23:06:07.480Z,5.50
2019-04-21T23:08:36.271Z,5.87
2019-04-21T23:11:04.996Z,6.42
2019-04-21T23:13:30.917Z,5.85
2019-04-21T23:16:04.395Z,6.15
2019-04-21T23:18:46.452Z,5.50
2019-04-21T23:21:16.356Z,5.37
2019-04-21T23:23:51.724Z,5.28
2019-04-21T23:26:23.617Z,5.22
2019-04-21T23:28:51.290Z,5.60
2019-04-21T23:31:25.966Z,5.37
2019-04-21T23:33:34.439Z,4.70
2019-04-21T23:36:13.009Z,4.60
2019-04-21T23:38:37.480Z,4.67
2019-04-21T23:41:07.045Z,4.83
2019-04-21T23:43:34.986Z,4.85
2019-04-21T23:46:11.887Z,4.95
2019-04-21T23:48:50.044Z,4.70
2019-04-21T23:51:15.735Z,4.80
2019-04-21T23:53:35.276Z,5.03
2019-04-21T23:58:34.721Z,4.83
